Time;durP1;ratioP1;P1;durP2;ratioP2;P2;SDS_P1;SDS_P2;PMS_P1;PMS_P2;Temp;Humidity;BMP_temperature;BMP_pressure;BME280_temperature;BME280_humidity;BME280_pressure;Samples;Min_cycle;Max_cycle;Signal;HPM_P1;HPM_P2
2022/04/26 03:38:18;;;;;;;6.67;5.70;;;6.40;99.90;;;;;;4877651;29;20261;-59
2022/04/26 03:40:46;;;;;;;6.53;5.57;;;6.20;99.90;;;;;;4871288;29;20789;-60
2022/04/26 03:43:14;;;;;;;6.77;5.97;;;6.20;99.90;;;;;;4860882;29;20271;-59
2022/04/26 03:45:42;;;;;;;6.10;5.20;;;6.30;99.90;;;;;;4870865;29;20244;-59
2022/04/26 03:48:11;;;;;;;7.37;5.43;;;6.30;99.90;;;;;;4868756;29;20254;-59
2022/04/26 03:50:40;;;;;;;6.43;5.20;;;6.20;99.90;;;;;;4875835;29;20267;-59
2022/04/26 03:53:08;;;;;;;5.77;5.20;;;6.40;99.90;;;;;;4868975;29;20253;-58
2022/04/26 03:55:37;;;;;;;7.00;5.70;;;6.30;99.90;;;;;;4868079;29;20327;-59
2022/04/26 03:58:05;;;;;;;6.63;5.83;;;6.30;99.90;;;;;;4861205;29;20242;-60
2022/04/26 04:00:33;;;;;;;8.10;6.40;;;6.40;99.90;;;;;;4870645;29;20268;-59
2022/04/26 04:03:01;;;;;;;7.23;5.80;;;6.40;99.90;;;;;;4873130;29;20273;-58
2022/04/26 04:05:30;;;;;;;7.60;5.70;;;6.50;99.90;;;;;;4854244;29;20844;-58
2022/04/26 04:08:00;;;;;;;7.97;6.00;;;6.40;99.90;;;;;;4842044;29;20279;-61
2022/04/26 04:10:28;;;;;;;6.60;5.70;;;6.30;99.90;;;;;;4850416;29;20266;-59
2022/04/26 04:12:56;;;;;;;8.07;6.30;;;6.20;99.90;;;;;;4849236;29;20246;-59
2022/04/26 04:15:24;;;;;;;6.13;5.53;;;6.20;99.90;;;;;;4866109;29;20265;-60
2022/04/26 04:17:53;;;;;;;6.73;6.00;;;6.10;99.90;;;;;;4859368;29;20241;-59
2022/04/26 04:20:21;;;;;;;6.73;5.73;;;6.20;99.90;;;;;;4851390;29;20617;-59
2022/04/26 04:22:53;;;;;;;7.40;6.23;;;6.30;99.90;;;;;;4873241;29;20241;-58
2022/04/26 04:25:23;;;;;;;7.83;5.80;;;6.20;99.90;;;;;;4863423;29;20294;-58
2022/04/26 04:27:51;;;;;;;9.57;6.50;;;6.40;99.90;;;;;;4857309;29;20275;-59
2022/04/26 04:30:19;;;;;;;7.57;6.13;;;6.40;99.90;;;;;;4851411;29;20298;-59
2022/04/26 04:32:49;;;;;;;10.03;6.83;;;6.60;99.90;;;;;;4874343;29;20234;-58
2022/04/26 04:35:17;;;;;;;10.07;6.67;;;6.60;99.90;;;;;;4862155;29;20329;-58
2022/04/26 04:37:47;;;;;;;6.97;6.27;;;6.60;99.90;;;;;;4855099;29;20250;-58
2022/04/26 04:40:16;;;;;;;8.53;6.67;;;6.60;99.90;;;;;;4862039;29;20719;-59
2022/04/26 04:42:47;;;;;;;9.23;6.27;;;6.50;99.90;;;;;;4863133;29;20328;-59
2022/04/26 04:45:15;;;;;;;11.73;7.00;;;6.50;99.90;;;;;;4852240;29;20330;-59
2022/04/26 04:47:43;;;;;;;8.80;7.20;;;6.70;99.90;;;;;;4857457;29;20695;-59
2022/04/26 04:50:12;;;;;;;9.67;6.73;;;6.60;99.90;;;;;;4847288;29;20247;-60
2022/04/26 04:52:40;;;;;;;9.37;6.43;;;6.60;99.90;;;;;;4851082;29;20247;-58
2022/04/26 04:55:09;;;;;;;10.93;7.47;;;6.80;99.90;;;;;;4851112;29;20253;-60
2022/04/26 04:57:37;;;;;;;10.23;6.97;;;7.00;99.90;;;;;;4855244;29;20240;-59
2022/04/26 05:00:08;;;;;;;9.13;7.10;;;7.10;99.90;;;;;;4851688;29;20730;-58
2022/04/26 05:02:36;;;;;;;7.00;6.30;;;7.20;99.90;;;;;;4854697;29;20319;-59
2022/04/26 05:05:06;;;;;;;8.43;6.97;;;7.20;99.90;;;;;;4859690;29;20329;-59
2022/04/26 05:07:34;;;;;;;8.97;6.57;;;7.20;99.90;;;;;;4841496;29;20239;-58
2022/04/26 05:10:04;;;;;;;9.17;6.97;;;7.20;99.90;;;;;;4853080;29;20270;-59
2022/04/26 05:12:32;;;;;;;7.77;6.33;;;7.20;99.90;;;;;;4850986;29;20786;-60
2022/04/26 05:15:01;;;;;;;9.13;6.47;;;7.20;99.90;;;;;;4851829;29;20318;-59
2022/04/26 05:17:31;;;;;;;7.93;6.70;;;7.30;99.90;;;;;;4849553;29;20250;-59
2022/04/26 05:20:00;;;;;;;9.03;7.13;;;7.30;99.90;;;;;;4851135;29;20246;-59
2022/04/26 05:22:29;;;;;;;10.00;6.87;;;7.30;99.90;;;;;;4862247;29;20242;-59
2022/04/26 05:24:56;;;;;;;9.37;7.47;;;7.30;99.90;;;;;;4861742;29;20239;-60
2022/04/26 05:27:26;;;;;;;9.67;7.83;;;7.70;99.90;;;;;;4841762;29;20301;-60
2022/04/26 05:29:55;;;;;;;9.37;7.57;;;7.70;99.90;;;;;;4854238;29;20259;-58
2022/04/26 05:32:24;;;;;;;9.27;6.73;;;7.70;99.90;;;;;;4843279;29;20748;-59
2022/04/26 05:34:58;;;;;;;10.87;8.27;;;7.90;99.90;;;;;;4847100;29;20234;-59
2022/04/26 05:37:26;;;;;;;10.57;8.23;;;7.80;99.90;;;;;;4851438;29;20302;-59
2022/04/26 05:39:55;;;;;;;9.70;8.30;;;7.70;99.90;;;;;;4850126;29;20600;-58
2022/04/26 05:42:24;;;;;;;8.97;7.70;;;7.70;99.90;;;;;;4857161;29;20243;-60
2022/04/26 05:44:52;;;;;;;10.30;7.43;;;7.60;99.90;;;;;;4864505;29;20230;-59
2022/04/26 05:47:20;;;;;;;9.20;7.23;;;7.60;99.90;;;;;;4847746;29;20292;-59
2022/04/26 05:49:48;;;;;;;9.00;7.30;;;7.50;99.90;;;;;;4857450;29;20253;-59
2022/04/26 05:52:18;;;;;;;9.10;7.33;;;7.50;99.90;;;;;;4843006;29;20685;-59
2022/04/26 05:54:46;;;;;;;9.90;7.93;;;7.50;99.90;;;;;;4845802;29;20239;-59
2022/04/26 05:57:15;;;;;;;11.90;7.93;;;7.50;99.90;;;;;;4848748;29;20295;-59
2022/04/26 05:59:43;;;;;;;8.63;7.60;;;7.50;99.90;;;;;;4866100;29;20234;-59
2022/04/26 06:02:11;;;;;;;10.63;8.13;;;7.50;99.90;;;;;;4877017;29;20249;-59
2022/04/26 06:04:39;;;;;;;11.63;8.23;;;7.50;99.90;;;;;;4871475;29;20290;-59
2022/04/26 06:07:08;;;;;;;12.30;7.67;;;7.50;99.90;;;;;;4871504;29;20702;-59
2022/04/26 06:09:37;;;;;;;10.23;7.67;;;7.50;99.90;;;;;;4870534;29;20590;-61
2022/04/26 06:12:06;;;;;;;9.93;8.23;;;7.70;99.90;;;;;;4858492;29;20250;-61
2022/04/26 06:14:34;;;;;;;9.77;7.73;;;7.90;99.90;;;;;;4844780;29;20234;-59
2022/04/26 06:17:03;;;;;;;10.07;8.20;;;8.00;99.90;;;;;;4859368;29;20241;-59
2022/04/26 06:19:31;;;;;;;13.00;8.50;;;8.10;99.90;;;;;;4845255;29;20322;-59
2022/04/26 06:22:00;;;;;;;11.10;7.83;;;8.20;99.90;;;;;;4861472;29;20245;-60
2022/04/26 06:24:28;;;;;;;12.07;7.87;;;8.30;99.90;;;;;;4844888;29;20589;-59
2022/04/26 06:26:58;;;;;;;9.37;7.17;;;8.40;99.90;;;;;;4875422;29;20579;-59
2022/04/26 06:29:26;;;;;;;9.73;7.77;;;8.60;99.90;;;;;;4867771;29;20595;-59
2022/04/26 06:31:54;;;;;;;8.60;7.40;;;8.80;99.90;;;;;;4863847;29;20281;-60
2022/04/26 06:34:22;;;;;;;10.47;7.07;;;8.90;99.90;;;;;;4865521;29;20340;-59
2022/04/26 06:36:50;;;;;;;9.67;7.60;;;9.00;99.90;;;;;;4848336;29;20239;-59
2022/04/26 06:39:18;;;;;;;9.10;6.83;;;9.20;99.90;;;;;;4865541;29;20245;-59
2022/04/26 06:41:47;;;;;;;8.40;7.23;;;9.50;99.90;;;;;;4860963;29;20234;-59
2022/04/26 06:44:17;;;;;;;8.37;7.13;;;9.80;99.90;;;;;;4864107;29;20752;-60
2022/04/26 06:46:45;;;;;;;9.47;6.77;;;10.10;99.90;;;;;;4868278;29;21037;-59
2022/04/26 06:49:13;;;;;;;8.33;6.60;;;10.50;99.90;;;;;;4848491;29;20614;-59
2022/04/26 06:51:43;;;;;;;9.10;7.50;;;10.60;99.90;;;;;;4854671;29;20335;-59
2022/04/26 06:54:11;;;;;;;7.53;6.83;;;10.80;99.90;;;;;;4858240;29;20278;-60
2022/04/26 06:56:41;;;;;;;8.40;7.10;;;11.10;99.90;;;;;;4843248;29;20613;-59
2022/04/26 06:59:09;;;;;;;8.37;6.40;;;11.50;99.90;;;;;;4851118;29;20250;-59
2022/04/26 07:01:38;;;;;;;6.80;5.97;;;12.10;99.90;;;;;;4853176;29;20736;-59
2022/04/26 07:04:08;;;;;;;8.23;6.70;;;12.20;99.90;;;;;;4866888;29;20248;-60
2022/04/26 07:06:38;;;;;;;7.33;6.37;;;12.50;99.90;;;;;;4853585;29;20279;-59
2022/04/26 07:09:06;;;;;;;8.23;6.80;;;12.60;99.90;;;;;;4867213;29;20252;-59
2022/04/26 07:11:34;;;;;;;7.50;6.40;;;12.70;99.90;;;;;;4851194;29;20691;-60
2022/04/26 07:14:02;;;;;;;7.30;6.00;;;12.90;99.90;;;;;;4851282;29;20324;-59
2022/04/26 07:16:30;;;;;;;7.03;5.83;;;13.10;99.90;;;;;;4860983;29;20252;-59
2022/04/26 07:19:00;;;;;;;7.67;5.50;;;13.30;99.90;;;;;;4860924;29;20686;-59
2022/04/26 07:21:28;;;;;;;9.10;5.83;;;13.50;99.90;;;;;;4860442;29;20243;-62
2022/04/26 07:24:16;;;;;;;8.53;6.43;;;13.70;99.90;;;;;;4848934;29;20329;-60
2022/04/26 07:26:44;;;;;;;7.20;5.20;;;13.90;99.90;;;;;;4842610;29;20253;-59
2022/04/26 07:29:15;;;;;;;6.97;5.20;;;14.00;99.90;;;;;;4853012;29;20297;-59
2022/04/26 07:31:44;;;;;;;5.20;4.70;;;13.90;99.90;;;;;;4860980;29;20237;-60
2022/04/26 07:34:22;;;;;;;5.80;4.93;;;14.10;99.90;;;;;;4864716;29;20306;-61
2022/04/26 07:36:53;;;;;;;6.13;4.63;;;14.40;99.90;;;;;;4877245;29;20236;-59
2022/04/26 07:39:21;;;;;;;5.17;4.63;;;14.70;99.90;;;;;;4850740;29;20245;-60
2022/04/26 07:41:50;;;;;;;5.87;5.10;;;14.80;99.90;;;;;;4854845;29;20621;-59
2022/04/26 07:44:19;;;;;;;6.33;4.80;;;15.00;99.90;;;;;;4852958;29;20243;-60
2022/04/26 07:46:48;;;;;;;6.03;4.23;;;14.90;99.90;;;;;;4866476;29;20253;-60
2022/04/26 07:49:19;;;;;;;6.80;4.60;;;14.70;99.90;;;;;;4864295;29;20336;-60
2022/04/26 07:51:48;;;;;;;4.90;4.50;;;14.80;99.90;;;;;;4878655;29;20241;-60
2022/04/26 07:54:16;;;;;;;8.47;5.30;;;14.90;99.90;;;;;;4875352;29;20246;-60
2022/04/26 07:56:45;;;;;;;5.17;4.67;;;15.00;99.90;;;;;;4866989;29;20671;-60
2022/04/26 07:59:14;;;;;;;5.47;4.87;;;15.30;99.90;;;;;;4862701;29;20242;-61
2022/04/26 08:01:43;;;;;;;4.83;4.43;;;15.50;99.90;;;;;;4853562;29;20718;-60
2022/04/26 08:04:11;;;;;;;5.83;5.03;;;15.80;99.90;;;;;;4852512;29;20606;-61
2022/04/26 08:06:42;;;;;;;6.43;5.57;;;16.00;99.90;;;;;;4841788;29;20238;-60
2022/04/26 08:09:10;;;;;;;7.30;5.20;;;16.10;99.90;;;;;;4843729;29;20300;-60
2022/04/26 08:11:39;;;;;;;6.17;4.77;;;15.80;99.90;;;;;;4852815;29;20610;-60
2022/04/26 08:14:07;;;;;;;5.13;4.63;;;15.70;99.90;;;;;;4866252;29;20245;-60
2022/04/26 08:16:35;;;;;;;7.47;4.40;;;16.00;99.90;;;;;;4849837;29;20601;-60
2022/04/26 08:19:04;;;;;;;4.97;4.17;;;16.10;99.90;;;;;;4857297;29;20279;-60
2022/04/26 08:21:40;;;;;;;10.60;4.37;;;16.50;99.90;;;;;;4845811;29;20652;-61
2022/04/26 08:29:40;;;;;;;4.37;3.97;;;16.80;99.90;;;;;;4854108;29;20664;-61
2022/04/26 08:32:08;;;;;;;7.80;4.77;;;17.00;99.90;;;;;;4853459;29;20246;-61
2022/04/26 08:34:36;;;;;;;5.57;4.83;;;17.20;99.90;;;;;;4867116;29;20281;-62
2022/04/26 08:37:06;;;;;;;5.27;4.77;;;17.30;99.90;;;;;;4861901;29;20718;-61
2022/04/26 08:39:34;;;;;;;5.57;4.63;;;17.40;99.90;;;;;;4870195;29;20262;-61
2022/04/26 08:42:04;;;;;;;4.47;3.67;;;17.40;99.90;;;;;;4841585;29;20588;-61
2022/04/26 08:44:34;;;;;;;4.90;4.17;;;17.70;99.90;;;;;;4852619;29;20663;-61
2022/04/26 08:52:48;;;;;;;5.47;4.27;;;17.40;99.90;;;;;;4866909;29;20303;-61
2022/04/26 08:55:17;;;;;;;6.07;4.47;;;17.40;99.90;;;;;;4859432;29;20246;-60
2022/04/26 08:57:45;;;;;;;5.33;4.50;;;17.50;99.90;;;;;;4859545;29;20615;-61
2022/04/26 09:00:16;;;;;;;5.00;4.50;;;17.90;99.90;;;;;;4863465;29;20243;-61
2022/04/26 09:02:59;;;;;;;6.37;4.70;;;18.20;99.90;;;;;;4876568;29;20265;-61
2022/04/26 09:05:27;;;;;;;4.73;3.93;;;18.00;99.90;;;;;;4873091;29;20775;-60
2022/04/26 09:07:58;;;;;;;5.17;4.10;;;17.80;99.90;;;;;;4859210;29;20248;-61
2022/04/26 09:10:29;;;;;;;4.27;3.87;;;18.00;99.90;;;;;;4850632;29;20308;-61
2022/04/26 09:13:09;;;;;;;4.40;3.93;;;18.40;99.90;;;;;;4863392;29;20268;-63
2022/04/26 09:15:40;;;;;;;5.90;4.30;;;18.70;99.90;;;;;;4854836;29;20263;-61
2022/04/26 09:18:17;;;;;;;4.97;4.47;;;18.50;99.90;;;;;;4850557;29;20318;-62
2022/04/26 09:20:46;;;;;;;5.73;4.20;;;18.40;99.90;;;;;;4847950;29;20250;-61
2022/04/26 09:23:20;;;;;;;3.93;3.53;;;18.40;99.70;;;;;;4864684;29;20243;-61
2022/04/26 09:25:52;;;;;;;7.37;3.97;;;18.20;99.90;;;;;;4861217;29;20231;-61
2022/04/26 09:28:25;;;;;;;4.43;3.70;;;18.60;99.90;;;;;;4853246;29;20824;-61
2022/04/26 09:30:53;;;;;;;5.40;4.00;;;19.00;99.90;;;;;;4840436;29;20237;-61
2022/04/26 09:33:32;;;;;;;6.23;4.00;;;19.00;99.70;;;;;;4841762;29;20253;-61
2022/04/26 09:36:01;;;;;;;5.73;4.63;;;19.30;99.90;;;;;;4858919;29;20732;-61
2022/04/26 09:38:33;;;;;;;4.87;4.17;;;19.00;98.70;;;;;;4866516;29;20260;-61
2022/04/26 09:41:02;;;;;;;4.10;3.37;;;18.60;99.10;;;;;;4851268;29;20240;-61
2022/04/26 09:43:30;;;;;;;3.53;3.17;;;18.80;99.70;;;;;;4872010;29;20252;-61
2022/04/26 09:46:00;;;;;;;3.97;3.50;;;18.90;98.70;;;;;;4866126;29;20729;-61
2022/04/26 09:48:30;;;;;;;5.07;4.57;;;19.50;99.60;;;;;;4861807;29;20729;-61
2022/04/26 09:50:58;;;;;;;5.97;4.30;;;19.60;97.00;;;;;;4869144;29;20261;-61
2022/04/26 09:53:27;;;;;;;4.20;3.80;;;19.90;97.70;;;;;;4860080;29;20597;-61
2022/04/26 09:55:58;;;;;;;3.60;3.30;;;20.00;97.90;;;;;;4853809;29;20249;-61
2022/04/26 09:58:28;;;;;;;3.33;2.90;;;20.40;97.20;;;;;;4844483;29;20655;-61
2022/04/26 10:00:58;;;;;;;4.50;4.10;;;20.90;97.50;;;;;;4855154;29;20250;-61
2022/04/26 10:03:32;;;;;;;5.27;4.10;;;20.60;94.70;;;;;;4858039;29;20627;-61
2022/04/26 10:06:02;;;;;;;5.97;4.90;;;20.30;95.10;;;;;;4854704;29;20246;-61
2022/04/26 10:08:32;;;;;;;5.40;4.60;;;20.10;95.60;;;;;;4856001;29;20316;-61
2022/04/26 10:11:02;;;;;;;6.27;4.23;;;20.00;96.40;;;;;;4849301;29;20242;-61
2022/04/26 10:13:35;;;;;;;5.47;4.60;;;20.50;96.40;;;;;;4854421;29;20238;-63
2022/04/26 10:16:05;;;;;;;5.83;4.73;;;20.70;95.70;;;;;;4861286;29;20698;-61
2022/04/26 10:18:35;;;;;;;4.83;4.33;;;20.80;95.40;;;;;;4848399;29;20734;-61
2022/04/26 10:21:05;;;;;;;6.67;4.97;;;20.70;95.20;;;;;;4847561;29;20283;-62
2022/04/26 10:24:14;;;;;;;5.23;4.37;;;20.20;94.70;;;;;;4848645;29;20280;-61
2022/04/26 10:26:44;;;;;;;4.73;4.30;;;19.40;95.40;;;;;;4855684;29;20249;-61
2022/04/26 10:29:18;;;;;;;6.07;4.50;;;20.10;96.90;;;;;;4853204;29;20771;-61
2022/04/26 10:31:48;;;;;;;5.00;4.50;;;20.50;95.70;;;;;;4855514;29;20246;-61
2022/04/26 10:34:29;;;;;;;6.83;4.00;;;21.00;95.60;;;;;;4854092;29;20714;-61
2022/04/26 10:37:02;;;;;;;3.90;3.60;;;21.20;93.70;;;;;;4862256;29;20246;-64
2022/04/26 10:39:36;;;;;;;4.43;3.67;;;21.20;93.00;;;;;;4854151;29;20238;-61
2022/04/26 10:42:27;;;;;;;3.63;3.27;;;21.00;92.60;;;;;;4844037;29;20250;-62
2022/04/26 10:45:00;;;;;;;5.40;3.63;;;21.30;93.30;;;;;;4846532;29;20249;-62
2022/04/26 10:47:29;;;;;;;4.47;4.07;;;21.80;92.30;;;;;;4865171;29;20831;-62
2022/04/26 10:50:00;;;;;;;7.73;4.40;;;21.80;92.40;;;;;;4852639;29;20615;-61
2022/04/26 10:52:49;;;;;;;4.03;3.40;;;20.60;92.00;;;;;;4856315;29;20321;-61
2022/04/26 10:55:26;;;;;;;4.70;3.90;;;19.90;93.90;;;;;;4867464;29;20249;-62
2022/04/26 10:57:57;;;;;;;7.30;3.93;;;19.90;94.40;;;;;;4876869;29;20348;-62
2022/04/26 11:00:34;;;;;;;4.83;4.30;;;20.40;94.30;;;;;;4856762;29;20245;-62
2022/04/26 11:03:06;;;;;;;4.63;4.23;;;20.40;93.30;;;;;;4870597;29;20634;-61
2022/04/26 11:05:35;;;;;;;4.50;3.77;;;20.40;92.60;;;;;;4847445;29;20660;-61
2022/04/26 11:08:05;;;;;;;4.70;4.27;;;20.30;93.50;;;;;;4848995;29;20246;-62
2022/04/26 11:13:35;;;;;;;5.23;4.20;;;19.90;94.80;;;;;;4844679;29;20253;-61
2022/04/26 11:16:12;;;;;;;3.93;3.50;;;19.90;94.10;;;;;;4853980;29;20241;-61
2022/04/26 11:18:42;;;;;;;6.07;4.47;;;20.30;94.60;;;;;;4861099;29;20322;-61
2022/04/26 11:21:13;;;;;;;4.70;4.00;;;20.90;92.30;;;;;;4865504;29;20603;-62
2022/04/26 11:29:32;;;;;;;6.87;4.30;;;21.80;91.90;;;;;;4812709;29;20251;-62
2022/04/26 11:32:01;;;;;;;5.00;4.37;;;21.70;91.20;;;;;;4814392;29;20330;-61
2022/04/26 11:34:46;;;;;;;5.40;4.90;;;21.60;91.80;;;;;;4840688;29;20234;-62
2022/04/26 11:37:15;;;;;;;3.97;3.60;;;21.80;91.50;;;;;;4847634;29;20731;-62
2022/04/26 11:39:44;;;;;;;5.03;4.53;;;21.60;93.00;;;;;;4852381;29;20306;-61
2022/04/26 11:42:13;;;;;;;6.73;5.13;;;21.50;92.20;;;;;;4850544;29;20332;-63
2022/04/26 11:44:58;;;;;;;6.27;5.33;;;20.90;92.80;;;;;;4856430;29;20238;-62
2022/04/26 11:47:40;;;;;;;6.67;5.33;;;19.90;92.80;;;;;;4864966;29;20755;-61
2022/04/26 11:50:14;;;;;;;6.43;5.47;;;19.20;93.80;;;;;;4848025;29;20325;-62
2022/04/26 11:52:43;;;;;;;5.53;4.97;;;19.20;95.40;;;;;;4858438;29;20252;-61
2022/04/26 11:55:25;;;;;;;6.90;5.10;;;19.70;95.20;;;;;;4867950;29;20237;-62
2022/04/26 11:58:04;;;;;;;6.13;5.50;;;20.20;93.70;;;;;;4860916;29;20256;-62
2022/04/26 12:00:34;;;;;;;6.70;5.23;;;20.30;92.70;;;;;;4862688;29;20733;-62
2022/04/26 12:03:04;;;;;;;5.60;5.00;;;20.20;93.50;;;;;;4860930;29;20671;-62
2022/04/26 12:05:37;;;;;;;6.30;5.33;;;20.30;93.50;;;;;;4878512;29;20663;-62
2022/04/26 12:08:10;;;;;;;6.80;6.10;;;20.10;92.90;;;;;;4879232;29;20238;-62
2022/04/26 12:10:38;;;;;;;6.67;5.97;;;19.40;93.10;;;;;;4859950;29;20260;-61
2022/04/26 12:13:07;;;;;;;6.57;5.87;;;18.90;93.90;;;;;;4861304;29;20245;-63
2022/04/26 12:15:38;;;;;;;9.17;5.87;;;18.60;94.40;;;;;;4860671;29;20241;-61
2022/04/26 12:18:09;;;;;;;8.13;5.40;;;19.00;94.70;;;;;;4866690;29;20299;-62
2022/04/26 12:20:39;;;;;;;6.60;6.00;;;19.10;94.90;;;;;;4873088;29;20241;-61
2022/04/26 12:23:07;;;;;;;6.77;6.07;;;18.80;94.60;;;;;;4878525;29;20245;-62
2022/04/26 12:25:36;;;;;;;8.07;6.17;;;18.20;95.20;;;;;;4860539;29;20276;-61
2022/04/26 12:28:06;;;;;;;6.73;6.03;;;17.70;95.60;;;;;;4862039;29;20248;-61
2022/04/26 12:30:39;;;;;;;8.87;5.60;;;17.50;96.40;;;;;;4869083;29;20714;-61
2022/04/26 12:33:07;;;;;;;6.10;5.50;;;17.30;96.80;;;;;;4874924;29;20244;-62
2022/04/26 12:35:35;;;;;;;6.97;6.03;;;17.50;97.00;;;;;;4860970;29;20232;-61
2022/04/26 12:38:08;;;;;;;6.43;4.60;;;17.70;96.70;;;;;;4850162;29;20292;-61
2022/04/26 12:40:37;;;;;;;5.53;4.60;;;17.90;97.90;;;;;;4851693;29;20250;-61
2022/04/26 12:43:26;;;;;;;6.27;4.83;;;18.40;96.50;;;;;;4842012;29;20250;-61
2022/04/26 12:46:00;;;;;;;4.50;4.10;;;18.80;96.10;;;;;;4859443;29;20249;-62
2022/04/26 12:51:20;;;;;;;5.77;4.63;;;19.50;95.80;;;;;;4848225;29;20295;-61
2022/04/26 12:54:07;;;;;;;6.37;5.77;;;19.60;95.00;;;;;;4864430;29;20255;-61
2022/04/26 12:56:36;;;;;;;6.20;5.60;;;19.50;94.70;;;;;;4851894;29;20336;-61
2022/04/26 12:59:04;;;;;;;7.50;5.47;;;19.00;95.20;;;;;;4865351;29;20252;-61
2022/04/26 13:01:34;;;;;;;6.30;5.33;;;19.00;95.40;;;;;;4855332;29;20241;-62
2022/04/26 13:04:03;;;;;;;6.60;5.90;;;18.60;95.60;;;;;;4876596;29;20248;-61
2022/04/26 13:06:31;;;;;;;6.93;6.23;;;18.10;95.80;;;;;;4875066;29;20239;-61
2022/04/26 13:09:19;;;;;;;6.33;5.33;;;17.70;96.00;;;;;;4874678;29;20315;-60
2022/04/26 13:11:49;;;;;;;6.70;6.10;;;17.60;96.50;;;;;;4869678;29;20732;-61
2022/04/26 13:14:17;;;;;;;6.70;6.00;;;17.50;96.90;;;;;;4875133;29;20243;-61
2022/04/26 13:17:07;;;;;;;7.77;5.67;;;17.30;97.20;;;;;;4869881;29;20330;-61
2022/04/26 13:19:35;;;;;;;6.23;5.63;;;17.30;97.90;;;;;;4860561;29;20270;-60
2022/04/26 13:22:03;;;;;;;6.63;6.03;;;17.20;97.40;;;;;;4872707;29;20306;-60
2022/04/26 13:24:31;;;;;;;6.63;5.73;;;17.10;97.60;;;;;;4872033;29;20261;-60
2022/04/26 13:27:00;;;;;;;8.55;6.78;;;17.00;97.40;;;;;;4867573;29;20760;-62
2022/04/26 13:29:28;;;;;;;8.07;6.43;;;16.70;97.50;;;;;;4865016;29;20238;-61
2022/04/26 13:31:58;;;;;;;8.53;6.47;;;16.60;98.20;;;;;;4871508;29;21349;-60
2022/04/26 13:34:27;;;;;;;8.87;6.50;;;16.60;97.80;;;;;;4873987;29;20704;-62
2022/04/26 13:37:12;;;;;;;14.03;6.90;;;16.60;97.50;;;;;;4869609;29;20246;-60
2022/04/26 13:39:40;;;;;;;8.10;6.50;;;16.30;98.60;;;;;;4873297;29;20239;-60
2022/04/26 13:42:09;;;;;;;6.60;5.83;;;16.50;99.90;;;;;;4872783;29;20273;-61
2022/04/26 13:44:37;;;;;;;7.63;5.73;;;16.70;99.40;;;;;;4868554;29;20239;-61
2022/04/26 13:47:06;;;;;;;6.87;6.07;;;16.70;98.30;;;;;;4875744;29;20251;-61
2022/04/26 13:49:37;;;;;;;6.87;6.17;;;16.70;98.10;;;;;;4871405;29;20234;-61
2022/04/26 13:52:06;;;;;;;7.40;6.37;;;16.60;99.30;;;;;;4876656;29;20243;-61
2022/04/26 13:54:34;;;;;;;6.57;5.93;;;16.60;99.30;;;;;;4868511;29;20234;-61
2022/04/26 13:57:05;;;;;;;6.77;6.17;;;16.70;99.90;;;;;;4863176;29;20244;-61
2022/04/26 13:59:33;;;;;;;10.03;6.30;;;16.80;99.10;;;;;;4861711;29;20250;-61
2022/04/26 14:02:05;;;;;;;6.83;6.13;;;16.80;99.20;;;;;;4863132;29;20599;-61
2022/04/26 14:04:33;;;;;;;6.60;6.00;;;16.80;99.80;;;;;;4867550;29;20307;-61
2022/04/26 14:07:04;;;;;;;11.27;6.53;;;16.80;99.80;;;;;;4861315;29;20242;-61
2022/04/26 14:09:32;;;;;;;10.43;7.40;;;16.90;99.90;;;;;;4874684;29;20257;-60
2022/04/26 14:12:02;;;;;;;9.30;7.20;;;16.80;99.90;;;;;;4876986;29;20294;-60
2022/04/26 14:22:48;;;;;;;8.30;7.40;;;16.50;99.90;;;;;;4876714;29;20270;-60
2022/04/26 14:25:17;;;;;;;8.07;7.27;;;16.40;99.90;;;;;;4876533;29;20280;-60
2022/04/26 14:27:47;;;;;;;8.20;7.40;;;16.40;99.90;;;;;;4875507;29;20242;-61
2022/04/26 14:30:16;;;;;;;9.00;6.93;;;16.30;99.90;;;;;;4859730;29;20246;-62
2022/04/26 14:33:04;;;;;;;9.70;6.90;;;16.40;99.90;;;;;;4876118;29;20261;-61
2022/04/26 14:35:35;;;;;;;8.47;6.80;;;16.30;99.90;;;;;;4868970;29;20599;-61
2022/04/26 14:38:05;;;;;;;9.43;6.70;;;16.20;99.90;;;;;;4876857;29;20683;-60
2022/04/26 14:40:33;;;;;;;8.47;6.67;;;16.10;99.90;;;;;;4860082;29;20250;-60
2022/04/26 14:43:06;;;;;;;8.03;6.70;;;16.00;99.90;;;;;;4858431;29;20605;-60
2022/04/26 14:45:45;;;;;;;7.60;6.83;;;16.10;99.90;;;;;;4876291;29;20230;-60
2022/04/26 14:48:16;;;;;;;9.43;6.63;;;16.00;99.90;;;;;;4864901;29;20249;-61
2022/04/26 14:50:54;;;;;;;13.37;6.53;;;15.90;99.90;;;;;;4858102;29;20708;-61
2022/04/26 14:53:24;;;;;;;8.07;5.70;;;15.90;99.90;;;;;;4868353;29;20230;-60
2022/04/26 14:56:10;;;;;;;7.80;5.47;;;15.80;99.90;;;;;;4875467;29;20572;-60
2022/04/26 14:59:00;;;;;;;7.40;5.77;;;15.70;99.90;;;;;;4874289;29;20238;-61
2022/04/26 15:01:36;;;;;;;8.13;5.97;;;15.50;99.90;;;;;;4876360;29;20325;-62
2022/04/26 15:04:05;;;;;;;7.53;6.33;;;15.50;99.90;;;;;;4878037;29;20245;-62
2022/04/26 15:06:33;;;;;;;8.27;5.70;;;15.40;99.90;;;;;;4878201;29;20245;-62
2022/04/26 15:16:37;;;;;;;8.77;5.40;;;15.50;99.90;;;;;;4867876;29;20238;-62
2022/04/26 15:17:22;;;;;;;7.47;5.03;;;15.40;99.90;;;;;;4874137;29;20238;-62
2022/04/26 15:19:50;;;;;;;8.30;4.87;;;15.40;99.90;;;;;;4873991;29;20714;-62
2022/04/26 15:22:19;;;;;;;8.32;5.50;;;15.30;99.90;;;;;;4876008;29;20452;-60
2022/04/26 15:24:48;;;;;;;8.93;4.90;;;15.10;99.90;;;;;;4870039;29;20230;-61
2022/04/26 15:27:18;;;;;;;7.23;4.70;;;15.00;99.90;;;;;;4879628;29;20708;-61
2022/04/26 15:29:46;;;;;;;10.07;5.00;;;15.10;99.90;;;;;;4872951;29;20626;-61
2022/04/26 15:32:14;;;;;;;6.30;4.30;;;14.90;99.90;;;;;;4877212;29;20245;-61
2022/04/26 15:34:42;;;;;;;7.30;4.70;;;14.80;99.90;;;;;;4875799;29;20249;-61
2022/04/26 15:37:11;;;;;;;7.63;4.70;;;14.80;99.90;;;;;;4873543;29;20298;-61
2022/04/26 15:39:40;;;;;;;6.70;4.40;;;14.70;99.90;;;;;;4873865;29;20631;-61
2022/04/26 15:42:10;;;;;;;5.73;4.43;;;14.80;99.90;;;;;;4873225;29;20250;-61
2022/04/26 15:44:38;;;;;;;7.20;4.57;;;14.90;99.90;;;;;;4873145;29;20246;-60
2022/04/26 15:47:09;;;;;;;9.10;4.60;;;14.70;99.90;;;;;;4875031;29;20332;-61
2022/04/26 15:49:37;;;;;;;6.17;3.67;;;14.70;99.90;;;;;;4874179;29;20698;-60
2022/04/26 15:52:07;;;;;;;7.27;4.30;;;14.60;99.90;;;;;;4872242;29;20330;-60
2022/04/26 15:54:35;;;;;;;7.20;3.80;;;14.60;99.90;;;;;;4874273;29;20243;-61
2022/04/26 15:57:05;;;;;;;5.20;4.00;;;14.50;99.90;;;;;;4875338;29;20245;-61
2022/04/26 15:59:34;;;;;;;5.90;4.40;;;14.40;99.90;;;;;;4871179;29;20245;-61
2022/04/26 16:02:04;;;;;;;8.40;4.37;;;14.40;99.90;;;;;;4866910;29;20242;-62
2022/04/26 16:04:32;;;;;;;6.17;3.80;;;14.30;99.90;;;;;;4862123;29;20303;-61
2022/04/26 16:07:01;;;;;;;6.57;3.80;;;14.30;99.90;;;;;;4865363;29;20605;-61
2022/04/26 16:20:34;;;;;;;9.77;3.70;;;14.10;99.90;;;;;;4868974;29;20288;-62
2022/04/26 16:23:05;;;;;;;7.10;4.07;;;14.00;99.90;;;;;;4862391;29;20336;-61
2022/04/26 16:25:34;;;;;;;5.47;3.67;;;14.10;99.90;;;;;;4861895;29;20301;-61
2022/04/26 16:28:03;;;;;;;5.87;3.70;;;14.10;99.90;;;;;;4859126;29;20249;-61
2022/04/26 16:30:36;;;;;;;7.10;3.93;;;14.10;99.90;;;;;;4867225;29;20317;-62
2022/04/26 16:33:05;;;;;;;6.70;3.50;;;14.10;99.90;;;;;;4877831;29;20242;-60
2022/04/26 16:35:34;;;;;;;5.17;3.47;;;14.10;99.90;;;;;;4873374;29;20727;-61
2022/04/26 16:38:02;;;;;;;9.20;3.70;;;14.10;99.90;;;;;;4877856;29;20308;-62
2022/04/26 16:40:32;;;;;;;6.27;3.47;;;14.00;99.90;;;;;;4869293;29;20582;-61
2022/04/26 16:43:02;;;;;;;9.10;4.17;;;13.90;99.90;;;;;;4868650;29;20708;-62
2022/04/26 16:45:30;;;;;;;6.70;3.60;;;13.80;99.90;;;;;;4873942;29;20230;-61
2022/04/26 16:48:00;;;;;;;6.07;3.63;;;13.80;99.90;;;;;;4876087;29;20237;-61
2022/04/26 16:50:28;;;;;;;7.97;4.03;;;13.80;99.90;;;;;;4868126;29;20243;-62
2022/04/26 16:53:00;;;;;;;5.93;3.70;;;13.70;99.90;;;;;;4873627;29;20272;-60
2022/04/26 16:55:28;;;;;;;4.53;3.53;;;13.70;99.90;;;;;;4876851;29;20694;-61
2022/04/26 16:57:57;;;;;;;6.27;3.53;;;13.60;99.90;;;;;;4867205;29;20246;-62
2022/04/26 17:00:26;;;;;;;6.30;3.73;;;13.50;99.90;;;;;;4865002;29;20298;-61
2022/04/26 17:02:54;;;;;;;9.43;4.27;;;13.30;99.90;;;;;;4869667;29;20237;-62
2022/04/26 17:05:23;;;;;;;5.60;3.80;;;13.20;99.90;;;;;;4870288;29;20239;-60
2022/04/26 17:07:51;;;;;;;6.53;4.10;;;13.20;99.90;;;;;;4875999;29;20264;-60
2022/04/26 17:10:20;;;;;;;5.67;3.50;;;13.10;99.90;;;;;;4870221;29;20328;-60
2022/04/26 17:12:49;;;;;;;4.23;3.33;;;13.00;99.90;;;;;;4869709;29;20238;-60
2022/04/26 17:15:47;;;;;;;5.60;3.23;;;12.90;99.90;;;;;;4873237;29;20249;-60
2022/04/26 17:18:15;;;;;;;5.70;3.23;;;12.80;99.90;;;;;;4875423;29;20752;-59
2022/04/26 17:20:45;;;;;;;5.97;3.13;;;12.80;99.90;;;;;;4874147;29;20245;-61
2022/04/26 17:23:14;;;;;;;5.97;2.93;;;12.80;99.90;;;;;;4874950;29;20237;-61
2022/04/26 17:25:43;;;;;;;4.37;3.20;;;12.90;99.90;;;;;;4867954;29;20252;-60
2022/04/26 17:28:13;;;;;;;5.97;3.10;;;13.00;99.90;;;;;;4872191;29;20249;-60
2022/04/26 17:31:14;;;;;;;8.10;3.10;;;13.00;99.90;;;;;;4866120;29;20245;-60